sensor_id;sensor_type;location;lat;lon;timestamp;pressure;altitude;pressure_sealevel;temperature;humidity
79527;BME280;68974;47.754;-3.364;2023-05-07T00:00:45;101555.72;;;14.36;87.27
79527;BME280;68974;47.754;-3.364;2023-05-07T00:03:11;101559.56;;;14.35;87.22
79527;BME280;68974;47.754;-3.364;2023-05-07T00:05:36;101561.50;;;14.40;87.39
79527;BME280;68974;47.754;-3.364;2023-05-07T00:08:03;101565.38;;;14.39;87.65
79527;BME280;68974;47.754;-3.364;2023-05-07T00:10:28;101565.63;;;14.42;87.73
79527;BME280;68974;47.754;-3.364;2023-05-07T00:12:54;101559.53;;;14.45;87.77
79527;BME280;68974;47.754;-3.364;2023-05-07T00:15:19;101552.34;;;14.44;87.44
79527;BME280;68974;47.754;-3.364;2023-05-07T00:17:45;101559.25;;;14.42;87.51
79527;BME280;68974;47.754;-3.364;2023-05-07T00:20:10;101561.19;;;14.46;86.74
79527;BME280;68974;47.754;-3.364;2023-05-07T00:22:36;101558.47;;;14.41;86.78
79527;BME280;68974;47.754;-3.364;2023-05-07T00:25:01;101553.72;;;14.42;87.32
79527;BME280;68974;47.754;-3.364;2023-05-07T00:27:26;101547.88;;;14.48;86.65
79527;BME280;68974;47.754;-3.364;2023-05-07T00:29:52;101555.38;;;14.43;86.60
79527;BME280;68974;47.754;-3.364;2023-05-07T00:32:17;101559.56;;;14.40;86.91
79527;BME280;68974;47.754;-3.364;2023-05-07T00:34:43;101553.47;;;14.38;86.98
79527;BME280;68974;47.754;-3.364;2023-05-07T00:37:09;101553.47;;;14.38;87.26
79527;BME280;68974;47.754;-3.364;2023-05-07T00:39:35;101548.50;;;14.35;86.99
79527;BME280;68974;47.754;-3.364;2023-05-07T00:42:01;101555.16;;;14.39;87.58
79527;BME280;68974;47.754;-3.364;2023-05-07T00:44:27;101551.28;;;14.40;87.42
79527;BME280;68974;47.754;-3.364;2023-05-07T00:46:53;101550.16;;;14.41;86.92
79527;BME280;68974;47.754;-3.364;2023-05-07T00:49:20;101550.69;;;14.43;86.55
79527;BME280;68974;47.754;-3.364;2023-05-07T00:51:46;101547.41;;;14.41;86.74
79527;BME280;68974;47.754;-3.364;2023-05-07T00:54:13;101550.94;;;14.47;87.01
79527;BME280;68974;47.754;-3.364;2023-05-07T00:56:38;101559.25;;;14.42;86.83
79527;BME280;68974;47.754;-3.364;2023-05-07T00:59:05;101567.84;;;14.40;86.58
79527;BME280;68974;47.754;-3.364;2023-05-07T01:01:31;101563.94;;;14.46;87.04
79527;BME280;68974;47.754;-3.364;2023-05-07T01:03:57;101562.25;;;14.50;87.01
79527;BME280;68974;47.754;-3.364;2023-05-07T01:06:24;101568.94;;;14.44;86.89
79527;BME280;68974;47.754;-3.364;2023-05-07T01:08:51;101571.69;;;14.44;86.25
79527;BME280;68974;47.754;-3.364;2023-05-07T01:11:18;101571.66;;;14.49;86.36
79527;BME280;68974;47.754;-3.364;2023-05-07T01:13:47;101569.22;;;14.43;86.66
79527;BME280;68974;47.754;-3.364;2023-05-07T01:16:14;101564.53;;;14.38;86.88
79527;BME280;68974;47.754;-3.364;2023-05-07T01:18:39;101562.31;;;14.40;86.89
79527;BME280;68974;47.754;-3.364;2023-05-07T01:21:05;101561.50;;;14.40;87.08
79527;BME280;68974;47.754;-3.364;2023-05-07T01:23:30;101567.31;;;14.38;87.03
79527;BME280;68974;47.754;-3.364;2023-05-07T01:25:56;101564.00;;;14.41;87.43
79527;BME280;68974;47.754;-3.364;2023-05-07T01:28:22;101568.97;;;14.39;87.69
79527;BME280;68974;47.754;-3.364;2023-05-07T01:30:54;101564.53;;;14.38;87.90
79527;BME280;68974;47.754;-3.364;2023-05-07T01:33:21;101563.94;;;14.46;87.07
79527;BME280;68974;47.754;-3.364;2023-05-07T01:35:51;101565.09;;;14.40;87.40
79527;BME280;68974;47.754;-3.364;2023-05-07T01:38:18;101565.94;;;14.41;87.42
79527;BME280;68974;47.754;-3.364;2023-05-07T01:40:46;101570.88;;;14.44;87.43
79527;BME280;68974;47.754;-3.364;2023-05-07T01:43:11;101566.19;;;14.39;87.33
79527;BME280;68974;47.754;-3.364;2023-05-07T01:45:37;101567.84;;;14.40;87.17
79527;BME280;68974;47.754;-3.364;2023-05-07T01:48:04;101574.47;;;14.44;87.27
79527;BME280;68974;47.754;-3.364;2023-05-07T01:50:33;101576.38;;;14.49;86.77
79527;BME280;68974;47.754;-3.364;2023-05-07T01:52:59;101583.84;;;14.43;86.59
79527;BME280;68974;47.754;-3.364;2023-05-07T01:55:24;101578.34;;;14.43;86.57
79527;BME280;68974;47.754;-3.364;2023-05-07T01:57:50;101584.94;;;14.47;86.19
79527;BME280;68974;47.754;-3.364;2023-05-07T02:00:15;101589.66;;;14.42;85.60
79527;BME280;68974;47.754;-3.364;2023-05-07T02:02:41;101586.59;;;14.48;84.98
79527;BME280;68974;47.754;-3.364;2023-05-07T02:05:07;101591.28;;;14.48;85.16
79527;BME280;68974;47.754;-3.364;2023-05-07T02:07:32;101591.03;;;14.44;85.39
79527;BME280;68974;47.754;-3.364;2023-05-07T02:09:58;101587.72;;;14.42;85.31
79527;BME280;68974;47.754;-3.364;2023-05-07T02:12:23;101592.69;;;14.45;85.14
79527;BME280;68974;47.754;-3.364;2023-05-07T02:14:49;101590.53;;;14.32;85.29
79527;BME280;68974;47.754;-3.364;2023-05-07T02:17:14;101591.38;;;14.27;85.65
79527;BME280;68974;47.754;-3.364;2023-05-07T02:19:40;101589.41;;;14.33;85.35
79527;BME280;68974;47.754;-3.364;2023-05-07T02:22:06;101589.47;;;14.23;85.09
79527;BME280;68974;47.754;-3.364;2023-05-07T02:24:31;101591.72;;;14.21;85.59
79527;BME280;68974;47.754;-3.364;2023-05-07T02:26:56;101588.13;;;14.20;85.76
79527;BME280;68974;47.754;-3.364;2023-05-07T02:29:22;101595.03;;;14.18;85.78
79527;BME280;68974;47.754;-3.364;2023-05-07T02:31:47;101594.50;;;14.16;86.20
79527;BME280;68974;47.754;-3.364;2023-05-07T02:34:16;101607.22;;;14.17;86.65
79527;BME280;68974;47.754;-3.364;2023-05-07T02:36:42;101606.06;;;14.23;86.31
79527;BME280;68974;47.754;-3.364;2023-05-07T02:39:07;101599.16;;;14.20;86.21
79527;BME280;68974;47.754;-3.364;2023-05-07T02:41:32;101599.41;;;14.24;86.46
79527;BME280;68974;47.754;-3.364;2023-05-07T02:43:58;101596.66;;;14.24;86.25
79527;BME280;68974;47.754;-3.364;2023-05-07T02:46:23;101602.72;;;14.31;86.02
79527;BME280;68974;47.754;-3.364;2023-05-07T02:48:49;101607.69;;;14.29;86.74
79527;BME280;68974;47.754;-3.364;2023-05-07T02:51:14;101614.66;;;14.21;86.46
79527;BME280;68974;47.754;-3.364;2023-05-07T02:53:39;101614.94;;;14.15;86.53
79527;BME280;68974;47.754;-3.364;2023-05-07T02:56:05;101618.81;;;14.14;86.92
79527;BME280;68974;47.754;-3.364;2023-05-07T02:58:31;101613.28;;;14.14;86.83
79527;BME280;68974;47.754;-3.364;2023-05-07T03:00:56;101609.44;;;14.10;86.53
79527;BME280;68974;47.754;-3.364;2023-05-07T03:03:22;101602.28;;;14.04;87.01
79527;BME280;68974;47.754;-3.364;2023-05-07T03:05:48;101614.75;;;14.01;87.12
79527;BME280;68974;47.754;-3.364;2023-05-07T03:08:13;101616.66;;;14.06;86.78
79527;BME280;68974;47.754;-3.364;2023-05-07T03:10:39;101602.56;;;14.07;87.22
79527;BME280;68974;47.754;-3.364;2023-05-07T03:13:04;101616.66;;;14.06;87.84
79527;BME280;68974;47.754;-3.364;2023-05-07T03:15:30;101621.09;;;14.02;87.88
79527;BME280;68974;47.754;-3.364;2023-05-07T03:17:55;101621.34;;;14.05;87.62
79527;BME280;68974;47.754;-3.364;2023-05-07T03:20:21;101621.84;;;14.12;87.58
79527;BME280;68974;47.754;-3.364;2023-05-07T03:22:46;101617.72;;;14.10;87.88
79527;BME280;68974;47.754;-3.364;2023-05-07T03:25:12;101623.25;;;14.10;87.67
79527;BME280;68974;47.754;-3.364;2023-05-07T03:27:39;101619.03;;;14.22;87.80
79527;BME280;68974;47.754;-3.364;2023-05-07T03:30:05;101612.13;;;14.25;87.65
79527;BME280;68974;47.754;-3.364;2023-05-07T03:32:32;101620.72;;;14.18;88.13
79527;BME280;68974;47.754;-3.364;2023-05-07T03:34:57;101629.00;;;14.23;88.17
79527;BME280;68974;47.754;-3.364;2023-05-07T03:37:22;101627.31;;;14.22;88.16
79527;BME280;68974;47.754;-3.364;2023-05-07T03:39:48;101622.38;;;14.19;88.40
79527;BME280;68974;47.754;-3.364;2023-05-07T03:42:14;101609.94;;;14.22;88.30
79527;BME280;68974;47.754;-3.364;2023-05-07T03:44:40;101616.56;;;14.26;88.16
79527;BME280;68974;47.754;-3.364;2023-05-07T03:47:05;101619.34;;;14.21;88.62
79527;BME280;68974;47.754;-3.364;2023-05-07T03:49:31;101613.84;;;14.16;88.80
79527;BME280;68974;47.754;-3.364;2023-05-07T03:51:56;101609.44;;;14.10;88.45
79527;BME280;68974;47.754;-3.364;2023-05-07T03:54:22;101605.59;;;14.06;88.66
79527;BME280;68974;47.754;-3.364;2023-05-07T03:56:47;101614.13;;;14.14;88.46
79527;BME280;68974;47.754;-3.364;2023-05-07T03:59:13;101617.72;;;14.15;88.76
79527;BME280;68974;47.754;-3.364;2023-05-07T04:01:38;101623.47;;;14.23;88.56
79527;BME280;68974;47.754;-3.364;2023-05-07T04:04:04;101631.78;;;14.18;88.62
79527;BME280;68974;47.754;-3.364;2023-05-07T04:06:29;101637.00;;;14.25;88.83
79527;BME280;68974;47.754;-3.364;2023-05-07T04:08:55;101632.00;;;14.27;88.96
79527;BME280;68974;47.754;-3.364;2023-05-07T04:11:21;101628.16;;;14.23;88.61
79527;BME280;68974;47.754;-3.364;2023-05-07T04:13:46;101636.75;;;14.21;88.95
79527;BME280;68974;47.754;-3.364;2023-05-07T04:16:12;101636.97;;;14.35;88.47
79527;BME280;68974;47.754;-3.364;2023-05-07T04:18:37;101630.91;;;14.28;88.38
79527;BME280;68974;47.754;-3.364;2023-05-07T04:21:03;101636.16;;;14.29;88.79
79527;BME280;68974;47.754;-3.364;2023-05-07T04:23:28;101632.84;;;14.22;89.20
79527;BME280;68974;47.754;-3.364;2023-05-07T04:25:53;101641.13;;;14.27;89.22
79527;BME280;68974;47.754;-3.364;2023-05-07T04:28:19;101634.75;;;14.27;89.13
79527;BME280;68974;47.754;-3.364;2023-05-07T04:30:45;101641.94;;;14.28;88.96
79527;BME280;68974;47.754;-3.364;2023-05-07T04:33:11;101637.53;;;14.27;89.04
79527;BME280;68974;47.754;-3.364;2023-05-07T04:35:36;101635.34;;;14.24;89.21
79527;BME280;68974;47.754;-3.364;2023-05-07T04:38:02;101631.22;;;14.21;89.34
79527;BME280;68974;47.754;-3.364;2023-05-07T04:40:27;101629.00;;;14.23;89.33
79527;BME280;68974;47.754;-3.364;2023-05-07T04:42:53;101639.22;;;14.23;89.03
79527;BME280;68974;47.754;-3.364;2023-05-07T04:45:19;101641.44;;;14.26;89.17
79527;BME280;68974;47.754;-3.364;2023-05-07T04:47:45;101644.75;;;14.23;88.64
79527;BME280;68974;47.754;-3.364;2023-05-07T04:50:10;101648.03;;;14.30;88.06
79527;BME280;68974;47.754;-3.364;2023-05-07T04:52:36;101653.00;;;14.28;88.60
79527;BME280;68974;47.754;-3.364;2023-05-07T04:55:01;101654.69;;;14.24;88.81
79527;BME280;68974;47.754;-3.364;2023-05-07T04:57:27;101651.09;;;14.23;89.01
79527;BME280;68974;47.754;-3.364;2023-05-07T04:59:53;101661.31;;;14.23;88.81
79527;BME280;68974;47.754;-3.364;2023-05-07T05:02:18;101672.09;;;14.24;88.75
79527;BME280;68974;47.754;-3.364;2023-05-07T05:04:44;101673.50;;;14.22;89.22
79527;BME280;68974;47.754;-3.364;2023-05-07T05:07:10;101669.63;;;14.23;89.14
79527;BME280;68974;47.754;-3.364;2023-05-07T05:09:35;101677.66;;;14.19;88.72
79527;BME280;68974;47.754;-3.364;2023-05-07T05:12:00;101675.44;;;14.21;88.79
79527;BME280;68974;47.754;-3.364;2023-05-07T05:14:26;101673.22;;;14.18;89.10
79527;BME280;68974;47.754;-3.364;2023-05-07T05:16:51;101678.47;;;14.25;89.01
79527;BME280;68974;47.754;-3.364;2023-05-07T05:19:17;101667.97;;;14.22;88.70
79527;BME280;68974;47.754;-3.364;2023-05-07T05:21:42;101673.78;;;14.20;88.55
79527;BME280;68974;47.754;-3.364;2023-05-07T05:24:08;101681.50;;;14.18;88.61
79527;BME280;68974;47.754;-3.364;2023-05-07T05:26:34;101686.22;;;14.13;88.32
79527;BME280;68974;47.754;-3.364;2023-05-07T05:28:59;101691.75;;;14.18;88.03
79527;BME280;68974;47.754;-3.364;2023-05-07T05:31:24;101685.41;;;14.12;87.78
79527;BME280;68974;47.754;-3.364;2023-05-07T05:33:50;101691.22;;;14.11;88.23
79527;BME280;68974;47.754;-3.364;2023-05-07T05:36:16;101701.19;;;14.07;88.10
79527;BME280;68974;47.754;-3.364;2023-05-07T05:38:41;101698.69;;;14.10;87.89
79527;BME280;68974;47.754;-3.364;2023-05-07T05:41:06;101707.25;;;14.09;88.27
79527;BME280;68974;47.754;-3.364;2023-05-07T05:43:32;101703.94;;;14.12;88.28
79527;BME280;68974;47.754;-3.364;2023-05-07T05:45:57;101697.28;;;14.13;88.44
79527;BME280;68974;47.754;-3.364;2023-05-07T05:48:23;101705.00;;;14.26;87.71
79527;BME280;68974;47.754;-3.364;2023-05-07T05:50:48;101706.59;;;14.32;87.67
79527;BME280;68974;47.754;-3.364;2023-05-07T05:53:14;101711.84;;;14.44;87.87
79527;BME280;68974;47.754;-3.364;2023-05-07T05:55:39;101725.34;;;14.55;87.03
79527;BME280;68974;47.754;-3.364;2023-05-07T05:58:05;101722.22;;;14.67;86.90
79527;BME280;68974;47.754;-3.364;2023-05-07T06:00:30;101726.63;;;14.73;87.06
79527;BME280;68974;47.754;-3.364;2023-05-07T06:02:56;101728.53;;;14.78;86.48
79527;BME280;68974;47.754;-3.364;2023-05-07T06:05:21;101735.72;;;14.79;86.04
79527;BME280;68974;47.754;-3.364;2023-05-07T06:07:47;101744.03;;;14.79;86.26
79527;BME280;68974;47.754;-3.364;2023-05-07T06:10:12;101738.47;;;14.84;85.48
79527;BME280;68974;47.754;-3.364;2023-05-07T06:12:37;101736.56;;;14.79;85.55
79527;BME280;68974;47.754;-3.364;2023-05-07T06:15:03;101731.88;;;14.80;84.93
79527;BME280;68974;47.754;-3.364;2023-05-07T06:17:29;101737.94;;;14.77;84.94
79527;BME280;68974;47.754;-3.364;2023-05-07T06:19:54;101738.78;;;14.77;85.21
79527;BME280;68974;47.754;-3.364;2023-05-07T06:22:20;101729.06;;;14.85;85.24
79527;BME280;68974;47.754;-3.364;2023-05-07T06:24:45;101732.09;;;14.83;85.31
79527;BME280;68974;47.754;-3.364;2023-05-07T06:27:11;101742.88;;;14.90;85.18
79527;BME280;68974;47.754;-3.364;2023-05-07T06:29:36;101743.38;;;14.97;84.77
79527;BME280;68974;47.754;-3.364;2023-05-07T06:32:09;101740.50;;;15.12;84.99
79527;BME280;68974;47.754;-3.364;2023-05-07T06:34:35;101743.81;;;15.14;83.34
79527;BME280;68974;47.754;-3.364;2023-05-07T06:37:00;101738.53;;;15.17;83.19
79527;BME280;68974;47.754;-3.364;2023-05-07T06:39:26;101748.19;;;15.20;83.80
79527;BME280;68974;47.754;-3.364;2023-05-07T06:41:51;101751.53;;;15.17;83.90
79527;BME280;68974;47.754;-3.364;2023-05-07T06:44:17;101743.00;;;15.13;83.93
79527;BME280;68974;47.754;-3.364;2023-05-07T06:46:42;101742.09;;;15.23;83.34
79527;BME280;68974;47.754;-3.364;2023-05-07T06:49:08;101746.78;;;15.23;83.46
79527;BME280;68974;47.754;-3.364;2023-05-07T06:51:33;101750.34;;;15.28;82.63
79527;BME280;68974;47.754;-3.364;2023-05-07T06:53:58;101754.78;;;15.29;82.99
79527;BME280;68974;47.754;-3.364;2023-05-07T06:56:24;101752.25;;;15.33;82.39
79527;BME280;68974;47.754;-3.364;2023-05-07T06:58:50;101767.25;;;15.27;82.16
79527;BME280;68974;47.754;-3.364;2023-05-07T07:01:15;101765.81;;;15.34;82.47
79527;BME280;68974;47.754;-3.364;2023-05-07T07:03:41;101764.72;;;15.30;81.97
79527;BME280;68974;47.754;-3.364;2023-05-07T07:06:06;101767.44;;;15.35;81.73
79527;BME280;68974;47.754;-3.364;2023-05-07T07:08:32;101768.31;;;15.31;82.94
79527;BME280;68974;47.754;-3.364;2023-05-07T07:10:57;101772.75;;;15.32;81.90
79527;BME280;68974;47.754;-3.364;2023-05-07T07:13:23;101770.50;;;15.39;82.04
79527;BME280;68974;47.754;-3.364;2023-05-07T07:15:48;101759.94;;;15.41;81.84
79527;BME280;68974;47.754;-3.364;2023-05-07T07:18:14;101765.09;;;15.57;81.71
79527;BME280;68974;47.754;-3.364;2023-05-07T07:20:39;101771.00;;;15.80;80.07
79527;BME280;68974;47.754;-3.364;2023-05-07T07:23:05;101770.38;;;15.88;79.81
79527;BME280;68974;47.754;-3.364;2023-05-07T07:25:30;101766.31;;;16.04;77.93
79527;BME280;68974;47.754;-3.364;2023-05-07T07:27:56;101764.38;;;16.04;78.37
79527;BME280;68974;47.754;-3.364;2023-05-07T07:30:21;101765.31;;;15.95;77.54
79527;BME280;68974;47.754;-3.364;2023-05-07T07:32:46;101762.50;;;16.00;79.67
79527;BME280;68974;47.754;-3.364;2023-05-07T07:35:12;101765.59;;;15.93;79.34
79527;BME280;68974;47.754;-3.364;2023-05-07T07:37:37;101776.00;;;15.78;80.15
79527;BME280;68974;47.754;-3.364;2023-05-07T07:40:03;101788.00;;;15.68;79.83
79527;BME280;68974;47.754;-3.364;2023-05-07T07:42:28;101783.94;;;15.55;79.34
79527;BME280;68974;47.754;-3.364;2023-05-07T07:44:54;101778.91;;;15.63;80.17
79527;BME280;68974;47.754;-3.364;2023-05-07T07:47:20;101787.75;;;15.65;79.56
79527;BME280;68974;47.754;-3.364;2023-05-07T07:49:45;101787.19;;;15.68;77.16
79527;BME280;68974;47.754;-3.364;2023-05-07T07:52:11;101791.59;;;15.69;77.91
79527;BME280;68974;47.754;-3.364;2023-05-07T07:54:36;101790.47;;;15.70;78.07
79527;BME280;68974;47.754;-3.364;2023-05-07T07:57:02;101791.53;;;15.74;79.70
79527;BME280;68974;47.754;-3.364;2023-05-07T07:59:27;101799.97;;;15.64;78.12
79527;BME280;68974;47.754;-3.364;2023-05-07T08:01:52;101795.50;;;15.68;76.79
79527;BME280;68974;47.754;-3.364;2023-05-07T08:04:21;101788.97;;;15.53;76.93
79527;BME280;68974;47.754;-3.364;2023-05-07T08:06:46;101799.06;;;15.73;76.94
79527;BME280;68974;47.754;-3.364;2023-05-07T08:09:12;101801.97;;;15.87;76.34
79527;BME280;68974;47.754;-3.364;2023-05-07T08:11:38;101799.19;;;15.87;76.20
79527;BME280;68974;47.754;-3.364;2023-05-07T08:14:04;101803.50;;;15.98;76.39
79527;BME280;68974;47.754;-3.364;2023-05-07T08:16:30;101805.94;;;16.04;75.89
79527;BME280;68974;47.754;-3.364;2023-05-07T08:18:55;101811.22;;;16.06;75.86
79527;BME280;68974;47.754;-3.364;2023-05-07T08:21:21;101800.03;;;16.16;74.30
79527;BME280;68974;47.754;-3.364;2023-05-07T08:23:46;101801.69;;;16.17;74.12
79527;BME280;68974;47.754;-3.364;2023-05-07T08:26:12;101806.41;;;16.40;74.20
79527;BME280;68974;47.754;-3.364;2023-05-07T08:28:37;101816.13;;;16.67;73.49
79527;BME280;68974;47.754;-3.364;2023-05-07T08:31:02;101815.63;;;16.83;72.30
79527;BME280;68974;47.754;-3.364;2023-05-07T08:33:28;101823.16;;;17.02;71.33
79527;BME280;68974;47.754;-3.364;2023-05-07T08:35:53;101830.00;;;17.09;72.25
79527;BME280;68974;47.754;-3.364;2023-05-07T08:38:19;101827.69;;;17.16;71.44
79527;BME280;68974;47.754;-3.364;2023-05-07T08:40:44;101840.50;;;17.12;71.17
79527;BME280;68974;47.754;-3.364;2023-05-07T08:43:12;101841.25;;;16.99;71.75
79527;BME280;68974;47.754;-3.364;2023-05-07T08:45:39;101847.00;;;16.84;72.57
79527;BME280;68974;47.754;-3.364;2023-05-07T08:48:09;101844.94;;;16.71;71.73
79527;BME280;68974;47.754;-3.364;2023-05-07T08:50:36;101847.91;;;16.51;72.04
79527;BME280;68974;47.754;-3.364;2023-05-07T08:53:05;101854.56;;;16.50;72.35
79527;BME280;68974;47.754;-3.364;2023-05-07T08:55:30;101853.47;;;16.51;73.60
79527;BME280;68974;47.754;-3.364;2023-05-07T08:57:56;101870.97;;;16.46;73.56
79527;BME280;68974;47.754;-3.364;2023-05-07T09:00:21;101868.78;;;16.43;74.22
79527;BME280;68974;47.754;-3.364;2023-05-07T09:02:47;101867.78;;;16.58;74.06
79527;BME280;68974;47.754;-3.364;2023-05-07T09:05:13;101871.22;;;16.50;73.18
79527;BME280;68974;47.754;-3.364;2023-05-07T09:07:38;101876.69;;;16.60;72.25
79527;BME280;68974;47.754;-3.364;2023-05-07T09:10:05;101888.31;;;16.57;73.30
79527;BME280;68974;47.754;-3.364;2023-05-07T09:12:31;101874.44;;;16.57;72.69
79527;BME280;68974;47.754;-3.364;2023-05-07T09:14:56;101883.91;;;16.56;73.68
79527;BME280;68974;47.754;-3.364;2023-05-07T09:17:22;101878.34;;;16.61;73.56
79527;BME280;68974;47.754;-3.364;2023-05-07T09:19:47;101877.75;;;16.64;73.31
79527;BME280;68974;47.754;-3.364;2023-05-07T09:22:13;101874.69;;;16.65;72.85
79527;BME280;68974;47.754;-3.364;2023-05-07T09:24:38;101878.94;;;16.53;73.49
79527;BME280;68974;47.754;-3.364;2023-05-07T09:27:05;101883.53;;;16.67;72.66
79527;BME280;68974;47.754;-3.364;2023-05-07T09:29:31;101898.53;;;16.66;72.39
79527;BME280;68974;47.754;-3.364;2023-05-07T09:32:07;101899.09;;;16.63;72.77
79527;BME280;68974;47.754;-3.364;2023-05-07T09:34:32;101897.41;;;16.67;71.67
79527;BME280;68974;47.754;-3.364;2023-05-07T09:37:05;101900.53;;;16.61;72.69
79527;BME280;68974;47.754;-3.364;2023-05-07T09:39:48;101898.22;;;16.39;73.24
79527;BME280;68974;47.754;-3.364;2023-05-07T09:42:14;101895.84;;;16.56;72.37
79527;BME280;68974;47.754;-3.364;2023-05-07T09:44:40;101899.09;;;16.63;72.04
79527;BME280;68974;47.754;-3.364;2023-05-07T09:47:07;101895.50;;;16.63;71.73
79527;BME280;68974;47.754;-3.364;2023-05-07T09:49:37;101899.72;;;16.60;71.30
79527;BME280;68974;47.754;-3.364;2023-05-07T09:52:06;101902.72;;;16.64;71.11
79527;BME280;68974;47.754;-3.364;2023-05-07T09:54:34;101900.06;;;16.77;69.90
79527;BME280;68974;47.754;-3.364;2023-05-07T09:57:01;101908.03;;;17.08;70.43
79527;BME280;68974;47.754;-3.364;2023-05-07T09:59:28;101904.81;;;17.43;68.29
79527;BME280;68974;47.754;-3.364;2023-05-07T10:01:56;101912.16;;;18.41;66.05
79527;BME280;68974;47.754;-3.364;2023-05-07T10:04:22;101907.69;;;19.41;61.98
79527;BME280;68974;47.754;-3.364;2023-05-07T10:06:48;101907.56;;;19.96;60.83
79527;BME280;68974;47.754;-3.364;2023-05-07T10:09:14;101915.41;;;20.60;58.36
79527;BME280;68974;47.754;-3.364;2023-05-07T10:11:40;101916.13;;;21.05;55.99
79527;BME280;68974;47.754;-3.364;2023-05-07T10:14:07;101918.66;;;20.85;55.83
79527;BME280;68974;47.754;-3.364;2023-05-07T10:16:35;101931.13;;;19.40;58.82
79527;BME280;68974;47.754;-3.364;2023-05-07T10:19:05;101927.13;;;19.19;59.98
79527;BME280;68974;47.754;-3.364;2023-05-07T10:21:39;101942.97;;;18.77;62.34
79527;BME280;68974;47.754;-3.364;2023-05-07T10:24:19;101944.63;;;18.46;63.41
79527;BME280;68974;47.754;-3.364;2023-05-07T10:26:47;101950.31;;;18.03;64.55
79527;BME280;68974;47.754;-3.364;2023-05-07T10:32:32;101960.41;;;17.38;66.96
79527;BME280;68974;47.754;-3.364;2023-05-07T10:35:01;101957.34;;;16.92;68.38
79527;BME280;68974;47.754;-3.364;2023-05-07T10:37:28;101957.56;;;16.72;69.32
79527;BME280;68974;47.754;-3.364;2023-05-07T10:39:54;101964.84;;;16.63;69.26
79527;BME280;68974;47.754;-3.364;2023-05-07T10:42:20;101967.41;;;16.59;69.47
79527;BME280;68974;47.754;-3.364;2023-05-07T10:44:45;101969.28;;;16.64;69.87
79527;BME280;68974;47.754;-3.364;2023-05-07T10:47:12;101970.66;;;16.66;69.49
79527;BME280;68974;47.754;-3.364;2023-05-07T10:54:38;101973.66;;;17.22;66.91
79527;BME280;68974;47.754;-3.364;2023-05-07T10:57:36;101974.22;;;17.67;66.23
79527;BME280;68974;47.754;-3.364;2023-05-07T11:05:32;101979.69;;;18.47;62.41
79527;BME280;68974;47.754;-3.364;2023-05-07T11:07:59;101984.28;;;18.19;63.89
79527;BME280;68974;47.754;-3.364;2023-05-07T11:13:42;101990.91;;;18.04;66.00
79527;BME280;68974;47.754;-3.364;2023-05-07T11:18:53;101984.19;;;18.62;63.10
79527;BME280;68974;47.754;-3.364;2023-05-07T11:23:59;101966.00;;;21.94;53.77
79527;BME280;68974;47.754;-3.364;2023-05-07T11:26:25;101975.22;;;23.10;48.66
79527;BME280;68974;47.754;-3.364;2023-05-07T11:28:51;101968.97;;;23.72;46.78
79527;BME280;68974;47.754;-3.364;2023-05-07T11:31:21;101973.31;;;24.11;44.85
79527;BME280;68974;47.754;-3.364;2023-05-07T11:33:47;101974.81;;;23.88;44.77
79527;BME280;68974;47.754;-3.364;2023-05-07T11:36:13;101979.59;;;23.28;45.38
79527;BME280;68974;47.754;-3.364;2023-05-07T11:38:38;101981.13;;;22.54;48.07
79527;BME280;68974;47.754;-3.364;2023-05-07T11:41:04;101981.91;;;21.68;48.22
79527;BME280;68974;47.754;-3.364;2023-05-07T11:43:31;101989.16;;;21.21;50.33
79527;BME280;68974;47.754;-3.364;2023-05-07T11:46:11;102002.97;;;20.64;53.77
79527;BME280;68974;47.754;-3.364;2023-05-07T11:48:37;102003.00;;;19.93;56.34
79527;BME280;68974;47.754;-3.364;2023-05-07T11:51:04;102007.81;;;19.51;58.66
79527;BME280;68974;47.754;-3.364;2023-05-07T11:53:40;102003.84;;;18.97;61.35
79527;BME280;68974;47.754;-3.364;2023-05-07T11:56:07;102010.47;;;18.69;62.88
79527;BME280;68974;47.754;-3.364;2023-05-07T11:58:33;102021.78;;;18.59;62.66
79527;BME280;68974;47.754;-3.364;2023-05-07T12:00:58;102022.78;;;18.31;63.01
79527;BME280;68974;47.754;-3.364;2023-05-07T12:03:23;102017.06;;;18.03;64.29
79527;BME280;68974;47.754;-3.364;2023-05-07T12:05:49;102020.09;;;18.07;63.86
79527;BME280;68974;47.754;-3.364;2023-05-07T12:08:15;102017.28;;;18.26;64.47
79527;BME280;68974;47.754;-3.364;2023-05-07T12:10:41;102018.78;;;18.55;64.17
79527;BME280;68974;47.754;-3.364;2023-05-07T12:15:44;102005.50;;;19.26;61.06
79527;BME280;68974;47.754;-3.364;2023-05-07T12:18:11;102000.38;;;19.74;58.37
79527;BME280;68974;47.754;-3.364;2023-05-07T12:20:37;102001.16;;;20.38;56.40
79527;BME280;68974;47.754;-3.364;2023-05-07T12:23:03;102002.41;;;20.76;56.11
79527;BME280;68974;47.754;-3.364;2023-05-07T12:25:34;101999.75;;;21.41;53.53
79527;BME280;68974;47.754;-3.364;2023-05-07T12:28:01;102000.34;;;21.69;52.39
79527;BME280;68974;47.754;-3.364;2023-05-07T12:30:26;102001.19;;;21.87;51.17
79527;BME280;68974;47.754;-3.364;2023-05-07T12:32:53;102002.19;;;22.85;50.69
79527;BME280;68974;47.754;-3.364;2023-05-07T12:35:26;101988.34;;;23.65;47.17
79527;BME280;68974;47.754;-3.364;2023-05-07T12:37:59;101990.63;;;23.92;45.75
79527;BME280;68974;47.754;-3.364;2023-05-07T12:40:35;102009.50;;;23.83;46.30
79527;BME280;68974;47.754;-3.364;2023-05-07T12:43:00;101994.31;;;23.84;45.66
79527;BME280;68974;47.754;-3.364;2023-05-07T12:45:26;102010.34;;;23.08;48.07
79527;BME280;68974;47.754;-3.364;2023-05-07T12:47:51;102008.16;;;22.32;49.68
79527;BME280;68974;47.754;-3.364;2023-05-07T12:50:17;102014.06;;;22.57;49.00
79527;BME280;68974;47.754;-3.364;2023-05-07T12:52:43;102018.94;;;23.49;47.69
79527;BME280;68974;47.754;-3.364;2023-05-07T12:55:13;102009.53;;;23.54;46.65
79527;BME280;68974;47.754;-3.364;2023-05-07T12:57:41;102019.09;;;23.53;47.21
79527;BME280;68974;47.754;-3.364;2023-05-07T13:00:07;102011.69;;;24.28;44.75